Time;durP1;ratioP1;P1;durP2;ratioP2;P2;SDS_P1;SDS_P2;PMS_P1;PMS_P2;Temp;Humidity;BMP_temperature;BMP_pressure;BME280_temperature;BME280_humidity;BME280_pressure;Samples;Min_cycle;Max_cycle;Signal;HPM_P1;HPM_P2
2022/12/15 00:39:06;;;;;;;8.13;0.70;;;;;;;;;;5126477;27;19919;-73
2022/12/15 00:41:36;;;;;;;2.92;0.70;;;;;;;;;;5127587;27;20074;-72
2022/12/15 00:44:06;;;;;;;1.25;0.60;;;;;;;;;;5127567;27;20031;-74
2022/12/15 00:46:54;;;;;;;1.63;0.30;;;;;;;;;;5124845;27;20047;-76
2022/12/15 01:20:31;;;;;;;1.40;0.40;;;;;;;;;;5125627;28;20035;-74
2022/12/15 01:23:01;;;;;;;1.50;0.50;;;;;;;;;;5124413;27;20058;-75
2022/12/15 01:25:31;;;;;;;4.28;0.70;;;;;;;;;;5127882;27;20052;-73
2022/12/15 01:28:01;;;;;;;6.00;1.02;;;;;;;;;;5129952;27;20050;-73
2022/12/15 01:30:30;;;;;;;3.88;0.90;;;;;;;;;;5131090;27;20027;-73
2022/12/15 01:33:00;;;;;;;3.03;0.88;;;;;;;;;;5130022;27;20047;-73
2022/12/15 01:35:31;;;;;;;2.17;0.80;;;;;;;;;;5131572;27;20043;-73
2022/12/15 01:38:01;;;;;;;2.00;0.70;;;;;;;;;;5131052;27;20035;-73
2022/12/15 01:40:46;;;;;;;5.95;1.05;;;;;;;;;;5131162;27;20039;-73
2022/12/15 01:43:19;;;;;;;3.78;0.73;;;;;;;;;;5130837;27;20047;-73
2022/12/15 01:46:08;;;;;;;4.53;0.55;;;;;;;;;;5131054;27;20043;-73
2022/12/15 01:48:40;;;;;;;6.05;1.08;;;;;;;;;;5131044;27;20062;-74
2022/12/15 01:51:28;;;;;;;3.40;0.93;;;;;;;;;;5130900;27;20503;-73
2022/12/15 01:54:04;;;;;;;4.53;1.23;;;;;;;;;;5129218;27;20050;-73
2022/12/15 01:56:39;;;;;;;2.58;0.80;;;;;;;;;;5130106;27;20051;-73
2022/12/15 01:59:14;;;;;;;6.32;0.95;;;;;;;;;;5131033;27;20035;-73
2022/12/15 02:01:44;;;;;;;3.05;0.80;;;;;;;;;;5130888;27;20041;-73
2022/12/15 02:04:21;;;;;;;5.32;0.80;;;;;;;;;;5130559;27;20043;-73
2022/12/15 02:06:51;;;;;;;2.42;1.08;;;;;;;;;;5130462;27;20047;-73
2022/12/15 02:09:24;;;;;;;5.35;1.30;;;;;;;;;;5130951;27;20031;-73
2022/12/15 02:12:20;;;;;;;5.50;1.00;;;;;;;;;;5129366;27;20039;-73
2022/12/15 02:15:10;;;;;;;3.55;0.85;;;;;;;;;;5128330;27;20051;-73
2022/12/15 02:17:56;;;;;;;3.88;1.10;;;;;;;;;;5130728;27;20063;-73
2022/12/15 02:20:52;;;;;;;2.38;0.80;;;;;;;;;;5130258;27;20039;-73
2022/12/15 02:23:47;;;;;;;2.78;1.17;;;;;;;;;;5129994;27;20508;-73
2022/12/15 02:26:50;;;;;;;5.10;2.15;;;;;;;;;;5130343;27;20039;-73
2022/12/15 02:29:50;;;;;;;2.60;0.95;;;;;;;;;;5130346;27;20043;-73
2022/12/15 02:32:41;;;;;;;3.75;1.50;;;;;;;;;;5130185;27;20031;-73
2022/12/15 02:35:19;;;;;;;4.72;1.23;;;;;;;;;;5129888;27;20043;-74
2022/12/15 02:37:50;;;;;;;14.35;1.50;;;;;;;;;;5128885;27;20386;-73
2022/12/15 02:40:20;;;;;;;8.25;1.70;;;;;;;;;;5129857;27;20054;-73
2022/12/15 02:42:54;;;;;;;2.75;1.00;;;;;;;;;;5130339;27;20413;-73
2022/12/15 02:46:00;;;;;;;3.42;1.30;;;;;;;;;;5130097;27;20051;-74
2022/12/15 02:48:44;;;;;;;6.43;1.10;;;;;;;;;;5105330;27;20425;-73
2022/12/15 02:51:33;;;;;;;3.40;1.15;;;;;;;;;;5129638;27;20489;-73
2022/12/15 02:54:14;;;;;;;2.72;1.27;;;;;;;;;;5129805;27;20039;-73
2022/12/15 02:57:25;;;;;;;2.38;1.10;;;;;;;;;;5129881;27;20047;-73
2022/12/15 03:00:06;;;;;;;5.40;1.20;;;;;;;;;;5113752;27;20063;-73
2022/12/15 03:02:41;;;;;;;4.60;1.60;;;;;;;;;;5130088;27;20500;-74
2022/12/15 03:05:13;;;;;;;2.67;1.20;;;;;;;;;;5128499;27;20043;-73
2022/12/15 03:07:43;;;;;;;4.25;1.23;;;;;;;;;;5129916;27;20054;-73
2022/12/15 03:10:19;;;;;;;3.22;1.40;;;;;;;;;;5129734;27;20035;-73
2022/12/15 03:12:49;;;;;;;5.72;1.20;;;;;;;;;;5129479;27;20040;-73
2022/12/15 03:15:19;;;;;;;5.03;1.48;;;;;;;;;;5129140;27;20404;-73
2022/12/15 03:17:49;;;;;;;3.75;1.60;;;;;;;;;;5129222;27;20043;-73
2022/12/15 03:20:19;;;;;;;3.58;1.40;;;;;;;;;;5128936;27;20050;-73
2022/12/15 03:22:49;;;;;;;1.90;1.20;;;;;;;;;;5129188;27;20031;-73
2022/12/15 03:25:19;;;;;;;3.03;1.65;;;;;;;;;;5129191;27;20377;-73
2022/12/15 03:27:49;;;;;;;5.80;1.73;;;;;;;;;;5129318;27;20047;-73
2022/12/15 03:30:19;;;;;;;3.83;1.45;;;;;;;;;;5127723;27;20039;-73
2022/12/15 03:32:49;;;;;;;3.72;1.67;;;;;;;;;;5129530;27;20495;-73
2022/12/15 03:35:19;;;;;;;2.28;1.20;;;;;;;;;;5129228;27;20051;-73
2022/12/15 03:37:49;;;;;;;3.15;1.60;;;;;;;;;;5128998;27;20049;-73
2022/12/15 03:40:19;;;;;;;4.22;1.67;;;;;;;;;;5126659;27;20043;-73
2022/12/15 03:42:49;;;;;;;2.92;1.88;;;;;;;;;;5128833;27;20043;-73
2022/12/15 03:45:22;;;;;;;6.70;2.00;;;;;;;;;;5126634;27;20047;-74
2022/12/15 03:47:53;;;;;;;6.65;1.90;;;;;;;;;;5128230;27;20394;-73
2022/12/15 03:50:27;;;;;;;5.88;2.05;;;;;;;;;;5129112;27;20051;-73
2022/12/15 03:53:02;;;;;;;4.82;2.08;;;;;;;;;;5127022;27;20054;-73
2022/12/15 03:55:34;;;;;;;4.18;1.92;;;;;;;;;;5128945;27;20057;-73
2022/12/15 03:58:04;;;;;;;4.22;1.95;;;;;;;;;;5128095;27;20054;-73
2022/12/15 04:00:34;;;;;;;5.75;2.22;;;;;;;;;;5128776;27;20050;-73
2022/12/15 04:03:04;;;;;;;4.65;2.28;;;;;;;;;;5128364;27;20495;-73
2022/12/15 04:05:34;;;;;;;4.63;2.53;;;;;;;;;;5128594;27;20512;-73
2022/12/15 04:08:05;;;;;;;6.25;2.00;;;;;;;;;;5128663;27;20493;-73
2022/12/15 04:10:35;;;;;;;3.88;1.85;;;;;;;;;;5126787;27;20051;-74
2022/12/15 04:13:10;;;;;;;5.22;2.63;;;;;;;;;;5126749;27;20062;-73
2022/12/15 04:15:40;;;;;;;6.07;2.28;;;;;;;;;;5125810;27;20497;-74
2022/12/15 04:18:12;;;;;;;7.97;2.17;;;;;;;;;;5127889;27;20497;-73
2022/12/15 04:20:43;;;;;;;5.57;2.20;;;;;;;;;;5128452;27;20035;-74
2022/12/15 04:23:13;;;;;;;5.00;2.00;;;;;;;;;;5125420;27;20508;-73
2022/12/15 05:33:21;;;;;;;5.80;2.80;;;;;;;;;;5126951;28;20401;-73
2022/12/15 05:35:50;;;;;;;6.00;3.10;;;;;;;;;;5125362;28;20398;-73
2022/12/15 05:38:20;;;;;;;5.38;2.95;;;;;;;;;;5126949;28;20039;-73
2022/12/15 05:40:51;;;;;;;4.15;3.05;;;;;;;;;;5126696;28;20393;-73
2022/12/15 05:43:20;;;;;;;4.63;3.38;;;;;;;;;;5127195;28;20042;-73
2022/12/15 05:45:54;;;;;;;11.23;3.00;;;;;;;;;;5127218;28;20039;-73
2022/12/15 05:48:26;;;;;;;4.10;2.80;;;;;;;;;;5126539;28;20039;-73
2022/12/15 05:50:56;;;;;;;5.38;3.65;;;;;;;;;;5125548;28;20043;-73
2022/12/15 05:53:25;;;;;;;5.20;3.30;;;;;;;;;;5127370;28;20039;-73
2022/12/15 05:56:04;;;;;;;7.20;3.75;;;;;;;;;;5126886;28;20485;-73
2022/12/15 05:58:35;;;;;;;5.43;3.17;;;;;;;;;;5126708;28;20035;-73
2022/12/15 06:01:15;;;;;;;10.30;5.38;;;;;;;;;;5126905;28;20509;-73
2022/12/15 06:03:45;;;;;;;6.90;4.15;;;;;;;;;;5125612;28;20068;-73
2022/12/15 06:06:15;;;;;;;7.35;4.32;;;;;;;;;;5126652;27;20379;-73
2022/12/15 06:08:45;;;;;;;10.82;4.32;;;;;;;;;;5126298;28;20062;-74
2022/12/15 06:11:19;;;;;;;7.18;4.18;;;;;;;;;;5128343;27;20043;-73
2022/12/15 06:13:50;;;;;;;6.93;4.65;;;;;;;;;;5130444;27;20039;-73
2022/12/15 06:16:22;;;;;;;7.07;5.03;;;;;;;;;;5130341;27;20047;-73
2022/12/15 06:18:57;;;;;;;8.23;4.82;;;;;;;;;;5131000;27;20043;-73
2022/12/15 06:21:30;;;;;;;8.93;5.05;;;;;;;;;;5130673;27;20500;-73
2022/12/15 06:24:01;;;;;;;10.50;4.70;;;;;;;;;;5128767;27;20047;-73
2022/12/15 06:26:37;;;;;;;6.35;4.25;;;;;;;;;;5130032;27;20031;-73
2022/12/15 06:29:09;;;;;;;8.93;5.00;;;;;;;;;;5128413;27;20516;-73
2022/12/15 06:31:40;;;;;;;7.30;4.75;;;;;;;;;;5130471;27;20050;-73
2022/12/15 06:34:13;;;;;;;8.48;4.85;;;;;;;;;;5129718;27;20042;-73
2022/12/15 06:36:44;;;;;;;8.73;5.00;;;;;;;;;;5130025;27;20496;-73
2022/12/15 06:39:15;;;;;;;8.88;5.07;;;;;;;;;;5130154;27;20047;-73
2022/12/15 06:41:45;;;;;;;8.70;5.47;;;;;;;;;;5130478;27;20039;-73
2022/12/15 06:44:15;;;;;;;11.77;5.13;;;;;;;;;;5129914;27;20043;-73
2022/12/15 06:46:45;;;;;;;9.88;5.20;;;;;;;;;;5129900;27;20039;-74
2022/12/15 06:49:15;;;;;;;8.40;5.93;;;;;;;;;;5130094;27;20503;-73
2022/12/15 06:51:47;;;;;;;9.07;5.50;;;;;;;;;;5129643;27;20508;-73
2022/12/15 06:54:17;;;;;;;8.93;5.93;;;;;;;;;;5129767;27;20816;-73
2022/12/15 06:56:47;;;;;;;9.48;5.47;;;;;;;;;;5127874;27;20047;-73
2022/12/15 06:59:18;;;;;;;13.95;6.00;;;;;;;;;;5129403;27;20485;-73
2022/12/15 07:01:47;;;;;;;11.93;6.72;;;;;;;;;;5127473;27;20050;-73
2022/12/15 07:04:18;;;;;;;14.57;5.78;;;;;;;;;;5129598;27;20039;-73
2022/12/15 07:06:48;;;;;;;11.35;5.38;;;;;;;;;;5129885;27;20059;-74
2022/12/15 07:09:19;;;;;;;10.07;5.68;;;;;;;;;;5127647;27;20035;-74
2022/12/15 07:11:50;;;;;;;11.48;6.32;;;;;;;;;;5129374;27;20482;-73
2022/12/15 07:14:21;;;;;;;11.65;6.05;;;;;;;;;;5129029;27;20050;-73
2022/12/15 07:16:51;;;;;;;11.50;5.82;;;;;;;;;;5129846;27;20046;-73
2022/12/15 07:19:21;;;;;;;9.15;5.63;;;;;;;;;;5128310;27;20050;-73
2022/12/15 07:21:51;;;;;;;8.32;5.38;;;;;;;;;;5128865;27;20050;-73
2022/12/15 07:24:21;;;;;;;13.20;6.38;;;;;;;;;;5128595;27;20039;-73
2022/12/15 07:26:51;;;;;;;10.57;5.65;;;;;;;;;;5129560;27;20043;-73
2022/12/15 07:29:21;;;;;;;9.35;5.57;;;;;;;;;;5129066;27;20047;-73
2022/12/15 07:31:51;;;;;;;10.40;6.15;;;;;;;;;;5128908;27;20043;-73
2022/12/15 07:34:21;;;;;;;8.98;5.80;;;;;;;;;;5128959;27;20066;-73
2022/12/15 07:36:51;;;;;;;10.00;5.93;;;;;;;;;;5128857;27;20044;-73
2022/12/15 07:39:21;;;;;;;12.15;5.75;;;;;;;;;;5128628;27;20050;-73
2022/12/15 07:41:51;;;;;;;18.30;6.05;;;;;;;;;;5128837;27;20405;-73
2022/12/15 07:44:20;;;;;;;10.05;5.50;;;;;;;;;;5129349;27;20050;-73
2022/12/15 07:46:51;;;;;;;8.23;5.32;;;;;;;;;;5128550;27;20027;-73
2022/12/15 07:49:21;;;;;;;8.95;5.72;;;;;;;;;;5128446;27;20406;-73
2022/12/15 07:51:50;;;;;;;9.68;5.40;;;;;;;;;;5128704;27;20035;-73
2022/12/15 07:54:20;;;;;;;10.93;5.80;;;;;;;;;;5127298;27;20105;-73
2022/12/15 07:56:53;;;;;;;8.30;6.03;;;;;;;;;;5128430;27;20033;-73
2022/12/15 07:59:23;;;;;;;9.65;5.32;;;;;;;;;;5128718;27;20039;-73
2022/12/15 08:01:52;;;;;;;8.25;5.18;;;;;;;;;;5127879;27;20534;-73
2022/12/15 08:04:23;;;;;;;11.18;5.05;;;;;;;;;;5128205;27;20031;-73
2022/12/15 08:06:54;;;;;;;9.88;5.63;;;;;;;;;;5125952;27;20399;-73
2022/12/15 08:09:25;;;;;;;9.15;5.13;;;;;;;;;;5128372;27;20067;-73
2022/12/15 08:11:54;;;;;;;10.85;5.65;;;;;;;;;;5126641;27;20043;-73
2022/12/15 08:14:24;;;;;;;20.70;5.65;;;;;;;;;;5128157;27;20039;-73
2022/12/15 08:16:54;;;;;;;8.73;5.13;;;;;;;;;;5127992;27;20031;-73
2022/12/15 08:19:24;;;;;;;10.65;5.70;;;;;;;;;;5128228;27;20089;-73
2022/12/15 08:21:54;;;;;;;7.75;6.13;;;;;;;;;;5128229;27;20054;-73
2022/12/15 08:24:24;;;;;;;9.77;6.05;;;;;;;;;;5127954;27;20043;-73
2022/12/15 08:26:54;;;;;;;9.05;5.13;;;;;;;;;;5127781;27;20042;-73
2022/12/15 08:29:24;;;;;;;8.68;6.00;;;;;;;;;;5127303;27;20043;-73
2022/12/15 08:32:13;;;;;;;11.63;5.47;;;;;;;;;;5125841;27;20513;-73
2022/12/15 08:34:43;;;;;;;7.53;5.38;;;;;;;;;;5126994;27;20047;-74
2022/12/15 08:37:14;;;;;;;7.88;5.35;;;;;;;;;;5126282;27;20043;-73
2022/12/15 08:39:44;;;;;;;17.73;5.90;;;;;;;;;;5128494;27;20043;-72
2022/12/15 08:42:14;;;;;;;8.50;5.20;;;;;;;;;;5126244;27;20054;-75
2022/12/15 08:44:47;;;;;;;7.32;4.95;;;;;;;;;;5127808;27;20089;-73
2022/12/15 08:47:17;;;;;;;10.73;6.47;;;;;;;;;;5126688;27;20066;-74
2022/12/15 08:49:47;;;;;;;10.55;5.50;;;;;;;;;;5127504;27;20048;-73
2022/12/15 08:52:18;;;;;;;7.28;4.72;;;;;;;;;;5127613;27;20043;-73
2022/12/15 08:54:48;;;;;;;8.60;5.15;;;;;;;;;;5127562;27;20587;-73
2022/12/15 08:57:20;;;;;;;7.05;3.95;;;;;;;;;;5126727;27;20135;-74
2022/12/15 08:59:49;;;;;;;7.47;4.55;;;;;;;;;;5126975;27;20039;-75
2022/12/15 09:02:19;;;;;;;8.27;4.95;;;;;;;;;;5127054;27;20035;-75
2022/12/15 09:04:50;;;;;;;11.82;4.45;;;;;;;;;;5127480;27;20457;-82
2022/12/15 09:07:20;;;;;;;9.35;4.15;;;;;;;;;;5127579;27;20047;-74
2022/12/15 09:09:56;;;;;;;11.40;5.85;;;;;;;;;;5127738;27;20043;-74
2022/12/15 09:12:27;;;;;;;15.70;5.53;;;;;;;;;;5126657;27;20121;-74
2022/12/15 09:14:56;;;;;;;7.10;4.50;;;;;;;;;;5126997;27;20043;-75
2022/12/15 09:17:27;;;;;;;10.80;4.05;;;;;;;;;;5127233;27;20047;-74
2022/12/15 09:19:57;;;;;;;9.18;4.63;;;;;;;;;;5126547;28;20047;-74
2022/12/15 09:22:27;;;;;;;9.30;5.00;;;;;;;;;;5126461;28;20039;-74
2022/12/15 09:24:57;;;;;;;8.93;4.95;;;;;;;;;;5127615;27;20481;-74
2022/12/15 09:27:29;;;;;;;12.38;4.95;;;;;;;;;;5127271;27;20520;-74
2022/12/15 09:29:59;;;;;;;10.10;4.70;;;;;;;;;;5127004;27;20042;-73
2022/12/15 09:32:29;;;;;;;9.85;4.72;;;;;;;;;;5127261;28;20508;-74
2022/12/15 09:34:58;;;;;;;11.48;4.82;;;;;;;;;;5127438;28;20047;-74
2022/12/15 09:37:31;;;;;;;9.65;4.38;;;;;;;;;;5125894;27;20051;-75
2022/12/15 09:40:01;;;;;;;10.85;4.45;;;;;;;;;;5127716;28;20058;-74
2022/12/15 09:42:31;;;;;;;6.32;4.32;;;;;;;;;;5127323;27;20032;-73
2022/12/15 09:45:07;;;;;;;9.38;4.70;;;;;;;;;;5127347;27;20061;-74
2022/12/15 09:47:52;;;;;;;6.95;4.50;;;;;;;;;;5129465;27;20043;-74
2022/12/15 09:50:31;;;;;;;11.70;4.05;;;;;;;;;;5131107;27;20367;-74
2022/12/15 09:53:02;;;;;;;8.85;4.70;;;;;;;;;;5131295;27;20046;-75
2022/12/15 09:56:06;;;;;;;10.10;3.88;;;;;;;;;;5130699;27;20043;-75
2022/12/15 09:58:47;;;;;;;16.55;4.50;;;;;;;;;;5130737;27;20043;-74
2022/12/15 10:01:40;;;;;;;7.55;4.47;;;;;;;;;;5130861;27;20039;-74
2022/12/15 10:04:29;;;;;;;8.52;5.18;;;;;;;;;;5130987;27;20043;-79
2022/12/15 10:07:07;;;;;;;7.10;4.60;;;;;;;;;;5130881;27;20043;-74
2022/12/15 10:09:38;;;;;;;7.53;4.15;;;;;;;;;;5130694;27;20046;-75
2022/12/15 10:12:35;;;;;;;7.47;3.75;;;;;;;;;;5130654;27;20035;-75
2022/12/15 10:15:26;;;;;;;9.35;4.25;;;;;;;;;;5126330;27;20043;-77
2022/12/15 10:18:11;;;;;;;7.22;4.25;;;;;;;;;;5129440;27;20054;-74
2022/12/15 10:20:41;;;;;;;3.70;3.20;;;;;;;;;;5130613;27;20580;-79
2022/12/15 10:23:16;;;;;;;7.55;3.97;;;;;;;;;;5130379;27;20517;-78
2022/12/15 10:26:00;;;;;;;6.32;3.85;;;;;;;;;;5130511;27;20050;-76
2022/12/15 10:29:02;;;;;;;8.82;4.03;;;;;;;;;;5130357;27;20500;-75
2022/12/15 10:31:44;;;;;;;7.32;3.75;;;;;;;;;;5129704;27;20551;-74
2022/12/15 10:34:28;;;;;;;6.15;3.10;;;;;;;;;;5130440;27;20039;-75
2022/12/15 10:36:58;;;;;;;5.30;3.22;;;;;;;;;;5129946;27;20054;-76
2022/12/15 10:39:41;;;;;;;7.68;3.50;;;;;;;;;;5130939;27;20050;-74
2022/12/15 10:42:21;;;;;;;;;;;;;;;;;;5129838;27;20835;-74
2022/12/15 10:44:57;;;;;;;7.88;3.70;;;;;;;;;;5129902;27;20297;-74
2022/12/15 10:47:31;;;;;;;8.48;3.78;;;;;;;;;;5129982;27;20043;-75
2022/12/15 10:50:22;;;;;;;9.85;3.95;;;;;;;;;;5129876;27;20039;-73
2022/12/15 10:52:53;;;;;;;9.77;3.33;;;;;;;;;;5129846;27;20464;-77
2022/12/15 10:55:39;;;;;;;8.05;3.42;;;;;;;;;;5127933;27;20051;-75
2022/12/15 10:58:21;;;;;;;4.45;2.65;;;;;;;;;;5128514;27;20046;-81
2022/12/15 11:01:08;;;;;;;3.85;2.60;;;;;;;;;;5129824;27;20853;-77
2022/12/15 11:03:38;;;;;;;4.53;2.72;;;;;;;;;;5129763;27;20051;-76
2022/12/15 11:06:24;;;;;;;7.65;3.67;;;;;;;;;;5129993;27;20374;-74
2022/12/15 11:09:20;;;;;;;5.00;3.17;;;;;;;;;;5130213;27;20035;-74
2022/12/15 11:14:48;;;;;;;5.95;3.00;;;;;;;;;;5129351;27;20043;-75
2022/12/15 11:17:42;;;;;;;7.63;2.95;;;;;;;;;;5127636;27;20043;-75
2022/12/15 11:20:21;;;;;;;4.40;2.63;;;;;;;;;;5129438;27;20043;-76
2022/12/15 11:23:00;;;;;;;5.30;2.83;;;;;;;;;;5129084;27;20043;-81
2022/12/15 11:25:47;;;;;;;4.30;2.70;;;;;;;;;;5129039;27;20050;-77
2022/12/15 11:28:24;;;;;;;4.95;2.50;;;;;;;;;;5129556;27;20827;-76
2022/12/15 11:31:27;;;;;;;3.67;2.47;;;;;;;;;;5129605;27;20039;-76
2022/12/15 11:33:57;;;;;;;7.63;3.67;;;;;;;;;;5121198;27;20047;-74
2022/12/15 11:36:43;;;;;;;4.05;2.35;;;;;;;;;;5128917;27;20610;-73
2022/12/15 11:39:41;;;;;;;5.93;2.03;;;;;;;;;;5129290;27;20359;-74
2022/12/15 11:42:27;;;;;;;5.72;1.95;;;;;;;;;;5128359;27;20478;-76
2022/12/15 11:45:27;;;;;;;5.30;2.10;;;;;;;;;;5128869;27;20043;-74
2022/12/15 11:48:16;;;;;;;3.35;1.92;;;;;;;;;;5128899;27;20054;-73
2022/12/15 11:50:58;;;;;;;4.95;2.15;;;;;;;;;;5128797;27;20043;-75
2022/12/15 11:53:57;;;;;;;3.95;1.85;;;;;;;;;;5129138;27;20058;-74
2022/12/15 11:56:42;;;;;;;7.53;2.30;;;;;;;;;;5127291;27;20062;-73
2022/12/15 11:59:37;;;;;;;4.38;2.05;;;;;;;;;;5128185;27;20521;-74
2022/12/15 12:02:20;;;;;;;5.07;2.33;;;;;;;;;;5128233;27;20043;-74
2022/12/15 12:05:21;;;;;;;3.72;1.70;;;;;;;;;;5126985;27;20058;-73
2022/12/15 12:08:07;;;;;;;4.05;1.80;;;;;;;;;;5128487;27;20038;-79
2022/12/15 12:10:46;;;;;;;5.97;2.55;;;;;;;;;;5127800;27;20390;-73
2022/12/15 12:13:26;;;;;;;5.05;2.00;;;;;;;;;;5128239;27;20039;-74
2022/12/15 12:16:17;;;;;;;6.45;2.33;;;;;;;;;;5127941;27;20493;-74
2022/12/15 12:19:01;;;;;;;3.72;1.80;;;;;;;;;;5128455;27;20043;-73
2022/12/15 12:21:45;;;;;;;4.75;1.92;;;;;;;;;;5128058;27;20036;-74
2022/12/15 12:24:31;;;;;;;7.20;3.65;;;;;;;;;;5127629;27;20047;-74
2022/12/15 12:27:25;;;;;;;5.35;1.83;;;;;;;;;;5126500;27;20047;-74
2022/12/15 12:30:16;;;;;;;5.18;1.98;;;;;;;;;;5117940;27;20055;-74
2022/12/15 12:33:13;;;;;;;5.80;2.10;;;;;;;;;;5127772;27;20043;-75
2022/12/15 12:36:05;;;;;;;4.47;1.83;;;;;;;;;;5090300;27;20054;-75
2022/12/15 12:38:51;;;;;;;5.30;2.00;;;;;;;;;;5127971;27;20460;-75
2022/12/15 12:41:35;;;;;;;5.82;2.10;;;;;;;;;;5126227;27;20054;-79
2022/12/15 12:44:24;;;;;;;6.30;2.20;;;;;;;;;;5127565;27;20035;-75
2022/12/15 12:46:55;;;;;;;3.72;1.63;;;;;;;;;;5127407;27;20039;-75
2022/12/15 12:49:29;;;;;;;4.75;1.92;;;;;;;;;;5127448;27;20053;-75
2022/12/15 12:52:03;;;;;;;4.82;2.10;;;;;;;;;;5127499;27;20054;-75
2022/12/15 12:54:36;;;;;;;4.85;2.80;;;;;;;;;;5127555;27;20054;-75
2022/12/15 12:57:12;;;;;;;3.85;1.90;;;;;;;;;;5126038;27;20054;-74
2022/12/15 13:00:00;;;;;;;4.00;1.92;;;;;;;;;;5127514;27;20039;-76
2022/12/15 13:02:33;;;;;;;3.90;1.67;;;;;;;;;;5127497;27;20512;-74
2022/12/15 13:05:44;;;;;;;7.95;2.10;;;;;;;;;;5127138;27;20476;-75
2022/12/15 13:08:27;;;;;;;5.25;1.75;;;;;;;;;;5043022;28;20049;-76
2022/12/15 13:11:35;;;;;;;2.85;1.50;;;;;;;;;;5043570;28;20407;-75
2022/12/15 13:14:15;;;;;;;5.50;1.80;;;;;;;;;;5118611;27;20508;-78
2022/12/15 13:17:19;;;;;;;3.35;2.03;;;;;;;;;;5127237;27;20035;-74
2022/12/15 13:19:56;;;;;;;4.13;1.70;;;;;;;;;;5127007;27;20043;-75
2022/12/15 13:22:29;;;;;;;5.07;1.70;;;;;;;;;;5127357;27;20039;-81
2022/12/15 13:25:00;;;;;;;4.88;2.00;;;;;;;;;;5126040;28;20039;-74
2022/12/15 13:27:39;;;;;;;6.38;1.95;;;;;;;;;;5127084;28;20039;-75
2022/12/15 13:30:09;;;;;;;3.60;1.80;;;;;;;;;;5127292;28;20051;-74
2022/12/15 13:32:42;;;;;;;6.15;2.13;;;;;;;;;;5127046;28;20047;-76
2022/12/15 13:35:13;;;;;;;3.92;1.55;;;;;;;;;;5126951;27;20426;-75
2022/12/15 13:38:06;;;;;;;6.55;1.75;;;;;;;;;;5127062;27;20055;-75
2022/12/15 13:40:36;;;;;;;4.45;1.33;;;;;;;;;;5127636;28;20039;-76
2022/12/15 13:43:30;;;;;;;3.60;1.55;;;;;;;;;;5127403;28;20051;-75
2022/12/15 13:46:10;;;;;;;7.60;2.67;;;;;;;;;;5127346;27;20039;-74
2022/12/15 13:49:01;;;;;;;4.18;1.67;;;;;;;;;;5126714;27;20039;-75
2022/12/15 13:51:41;;;;;;;8.15;1.80;;;;;;;;;;5126062;28;20485;-74
2022/12/15 13:54:18;;;;;;;7.03;2.65;;;;;;;;;;5126746;28;20039;-75
2022/12/15 13:56:56;;;;;;;9.90;2.00;;;;;;;;;;5126911;28;20043;-75
2022/12/15 13:59:47;;;;;;;7.80;1.90;;;;;;;;;;5126914;27;20074;-75
2022/12/15 14:02:35;;;;;;;4.35;1.70;;;;;;;;;;5126874;28;20482;-74
2022/12/15 14:05:24;;;;;;;3.50;1.83;;;;;;;;;;5127034;27;20042;-75
2022/12/15 14:07:55;;;;;;;5.30;2.03;;;;;;;;;;5126707;28;20043;-75
2022/12/15 14:10:35;;;;;;;6.15;1.40;;;;;;;;;;5125021;27;20043;-75
2022/12/15 14:13:23;;;;;;;3.33;1.50;;;;;;;;;;5126784;28;20047;-75
2022/12/15 14:16:03;;;;;;;3.65;1.67;;;;;;;;;;5127119;28;20031;-75
2022/12/15 14:18:39;;;;;;;4.20;1.63;;;;;;;;;;5126541;27;20599;-75
2022/12/15 14:21:25;;;;;;;4.45;1.35;;;;;;;;;;5126649;27;20051;-73
2022/12/15 14:23:59;;;;;;;4.43;1.42;;;;;;;;;;5126741;28;20393;-75
2022/12/15 14:26:50;;;;;;;1.98;1.30;;;;;;;;;;5126369;28;20041;-75
2022/12/15 14:29:20;;;;;;;4.95;1.70;;;;;;;;;;5124114;28;20500;-74
2022/12/15 14:31:54;;;;;;;5.18;1.50;;;;;;;;;;5126641;27;20077;-77
2022/12/15 14:34:40;;;;;;;3.90;1.50;;;;;;;;;;5129161;27;20054;-77
2022/12/15 14:37:18;;;;;;;4.25;1.23;;;;;;;;;;5130473;27;20039;-79
2022/12/15 14:39:49;;;;;;;4.80;1.58;;;;;;;;;;5130743;27;20058;-74
2022/12/15 14:42:23;;;;;;;3.28;1.45;;;;;;;;;;5130056;27;20039;-74
2022/12/15 14:44:55;;;;;;;6.00;1.50;;;;;;;;;;5130275;27;20051;-76
2022/12/15 14:47:30;;;;;;;5.00;2.03;;;;;;;;;;5130108;27;20050;-76
2022/12/15 14:50:02;;;;;;;2.88;1.30;;;;;;;;;;5129772;27;20047;-80
2022/12/15 14:52:44;;;;;;;4.60;1.67;;;;;;;;;;5129803;27;20039;-75
2022/12/15 14:55:36;;;;;;;6.38;1.73;;;;;;;;;;5130623;27;20054;-74
2022/12/15 14:58:39;;;;;;;5.78;1.42;;;;;;;;;;5127790;27;20043;-81
2022/12/15 15:01:28;;;;;;;4.15;1.60;;;;;;;;;;5086949;27;20478;-75
2022/12/15 15:04:01;;;;;;;3.25;1.60;;;;;;;;;;5129767;27;20042;-75
2022/12/15 15:06:37;;;;;;;3.17;1.35;;;;;;;;;;5130257;27;20043;-75
2022/12/15 15:09:48;;;;;;;3.97;1.60;;;;;;;;;;5128797;27;20043;-76
2022/12/15 15:12:21;;;;;;;5.90;1.55;;;;;;;;;;5129838;27;20050;-74
2022/12/15 15:15:04;;;;;;;6.05;1.77;;;;;;;;;;5129406;27;20043;-75
2022/12/15 15:17:45;;;;;;;2.88;1.40;;;;;;;;;;5129424;27;20046;-76
2022/12/15 15:20:21;;;;;;;3.70;1.50;;;;;;;;;;5128961;27;20393;-75
2022/12/15 15:23:15;;;;;;;3.83;1.65;;;;;;;;;;5129185;27;20560;-77
2022/12/15 15:25:57;;;;;;;5.60;1.95;;;;;;;;;;5129215;27;20035;-75
2022/12/15 15:28:35;;;;;;;4.13;1.40;;;;;;;;;;5129415;27;20039;-76
2022/12/15 15:31:24;;;;;;;7.70;1.60;;;;;;;;;;5129237;27;20047;-78
2022/12/15 15:33:58;;;;;;;4.95;1.50;;;;;;;;;;5129522;27;20039;-78
2022/12/15 15:36:37;;;;;;;3.00;1.63;;;;;;;;;;5129392;27;20043;-75
2022/12/15 15:39:18;;;;;;;3.42;1.42;;;;;;;;;;5128990;27;20039;-74
2022/12/15 15:41:49;;;;;;;8.35;1.60;;;;;;;;;;5129284;27;20389;-75
2022/12/15 15:44:19;;;;;;;7.03;1.60;;;;;;;;;;5129250;27;20035;-75
2022/12/15 15:46:51;;;;;;;6.43;1.40;;;;;;;;;;5129333;27;20039;-75
2022/12/15 15:49:26;;;;;;;4.25;1.50;;;;;;;;;;5128891;27;20051;-75
2022/12/15 15:52:13;;;;;;;3.03;1.17;;;;;;;;;;5110992;27;20789;-77
2022/12/15 15:54:44;;;;;;;3.33;1.30;;;;;;;;;;5129042;27;20050;-78
2022/12/15 15:57:15;;;;;;;4.45;1.88;;;;;;;;;;5128844;27;20042;-74
2022/12/15 15:59:45;;;;;;;3.47;1.77;;;;;;;;;;5129210;27;20046;-74
2022/12/15 16:02:15;;;;;;;4.82;1.60;;;;;;;;;;5129146;27;20047;-75
2022/12/15 16:04:46;;;;;;;4.10;1.80;;;;;;;;;;5129235;27;20039;-76
2022/12/15 16:07:27;;;;;;;4.13;1.42;;;;;;;;;;5128405;27;20633;-77
2022/12/15 16:09:57;;;;;;;6.70;2.33;;;;;;;;;;5127388;27;20393;-76
2022/12/15 16:12:32;;;;;;;2.95;1.30;;;;;;;;;;5128475;27;20027;-77
2022/12/15 16:15:12;;;;;;;3.88;1.55;;;;;;;;;;5127652;27;20047;-75
2022/12/15 16:17:42;;;;;;;2.88;1.45;;;;;;;;;;5126873;27;20031;-76
2022/12/15 16:20:18;;;;;;;7.38;1.83;;;;;;;;;;5125214;27;20047;-77
2022/12/15 16:22:54;;;;;;;3.67;1.42;;;;;;;;;;5127060;27;20043;-76
2022/12/15 16:25:30;;;;;;;8.02;1.73;;;;;;;;;;5128286;27;20043;-78
2022/12/15 16:28:19;;;;;;;4.50;1.60;;;;;;;;;;5128211;27;20038;-75
2022/12/15 16:30:50;;;;;;;4.70;1.48;;;;;;;;;;5128370;27;20509;-76
2022/12/15 16:33:20;;;;;;;3.10;1.38;;;;;;;;;;5128487;27;20046;-77
2022/12/15 16:35:50;;;;;;;6.20;1.67;;;;;;;;;;5127470;27;20043;-76
2022/12/15 16:38:27;;;;;;;10.35;2.10;;;;;;;;;;5128221;27;20036;-76
2022/12/15 16:41:05;;;;;;;6.00;1.75;;;;;;;;;;5126231;27;20039;-77
2022/12/15 16:43:36;;;;;;;5.70;2.22;;;;;;;;;;5127650;27;20043;-78
2022/12/15 16:46:15;;;;;;;7.85;1.65;;;;;;;;;;5126547;27;20042;-74
2022/12/15 16:48:46;;;;;;;7.63;2.22;;;;;;;;;;5127019;27;20042;-76
2022/12/15 16:51:45;;;;;;;4.13;1.42;;;;;;;;;;5125400;27;20047;-74
2022/12/15 16:54:24;;;;;;;7.95;2.15;;;;;;;;;;5126650;27;20054;-77
2022/12/15 16:56:56;;;;;;;6.80;1.83;;;;;;;;;;5126805;27;20047;-75
2022/12/15 16:59:27;;;;;;;8.13;2.08;;;;;;;;;;5127603;27;20047;-75
2022/12/15 17:02:23;;;;;;;5.55;1.50;;;;;;;;;;5126626;27;20393;-77
2022/12/15 17:04:56;;;;;;;6.53;1.88;;;;;;;;;;5127815;27;20043;-76
2022/12/15 17:07:27;;;;;;;4.53;1.58;;;;;;;;;;5126195;27;20093;-74
2022/12/15 17:09:57;;;;;;;5.30;1.85;;;;;;;;;;5127623;27;20070;-77
2022/12/15 17:12:27;;;;;;;4.65;1.73;;;;;;;;;;5127716;27;20039;-74
2022/12/15 17:14:57;;;;;;;3.45;1.60;;;;;;;;;;5127319;27;20054;-73
2022/12/15 17:17:29;;;;;;;2.97;1.50;;;;;;;;;;5127440;27;20043;-73
2022/12/15 17:19:59;;;;;;;2.53;1.67;;;;;;;;;;5127349;27;20042;-77
2022/12/15 17:22:57;;;;;;;4.85;1.70;;;;;;;;;;5127419;27;20386;-75
2022/12/15 17:25:39;;;;;;;6.45;2.00;;;;;;;;;;5127424;28;20035;-72
2022/12/15 17:28:32;;;;;;;5.40;2.20;;;;;;;;;;5126320;27;20054;-73
2022/12/15 17:31:02;;;;;;;9.00;2.53;;;;;;;;;;5125740;28;20050;-75
2022/12/15 17:33:34;;;;;;;6.88;2.40;;;;;;;;;;5127222;28;20047;-75
2022/12/15 17:36:25;;;;;;;6.28;2.65;;;;;;;;;;5126974;27;20478;-75
2022/12/15 17:39:01;;;;;;;7.55;2.63;;;;;;;;;;5126810;28;20611;-75
2022/12/15 17:41:31;;;;;;;8.70;2.65;;;;;;;;;;5127002;28;20047;-74
2022/12/15 17:44:25;;;;;;;10.25;2.70;;;;;;;;;;5127137;28;20043;-75
2022/12/15 17:47:07;;;;;;;8.98;2.20;;;;;;;;;;5126766;27;20031;-75
2022/12/15 17:49:37;;;;;;;13.45;3.05;;;;;;;;;;5127159;27;20046;-77
2022/12/15 17:52:30;;;;;;;6.93;3.40;;;;;;;;;;5127083;27;20035;-75
2022/12/15 17:55:01;;;;;;;9.10;3.33;;;;;;;;;;5126870;28;20050;-76
2022/12/15 17:57:30;;;;;;;7.78;2.17;;;;;;;;;;5127175;28;20038;-74
2022/12/15 18:00:01;;;;;;;9.00;2.47;;;;;;;;;;5127257;28;20047;-76